Hastings, Pennsylvania
Current Conditions -  °F | °C
As of 4:55 AM on Saturday 25 Oct 2014 (Local Time) from KIDI Reporting Station
Overcast Overcast  
Wind Chill: 46°   Ceiling: 4500
Heat Index: 48°   Visibility: 10mi
Dew Point: 41°   Wind: 5mph
Humidity: 76%   Direction: 230°SW
Pressure: 30"   Gusts: NA
Location:  40.67°N, 78.71°W
Report Text: KIDI 250855Z AUTO 23004KT 10SM OVC045 09/05 A3000 RMK A01
Loading
Personal Weather Stations






























Interactive Weather Map
Tropical Storm Tracking
New forecast layout! Learn more

10-Day Weather Forecast

Advertisements
Track Severe Weather on mobile